Terminal Aerodrome Forecast
Issued by NWS

Home | Current Version | Previous Version | Text Only | Print | Product List | Glossary On
Versions: 1 2 3 4 5 6 7 8 9 10 11 12 13 14 15 16 17 18 19 20 21 22 23 24 25 26 27 28 29 30 31 32 33 34 35 36 37 38 39 40 41 42 43 44 45 46 47 48 49 50
000
FTUS45 KBOU 280304 AAB
TAFAPA
TAF AMD
KAPA 280304Z 2803/2824 14012KT P6SM BKN050 BKN120
     FM280500 17008KT P6SM SCT070 BKN120
     FM281000 32006KT P6SM FEW030 SCT060 BKN100
      TEMPO 2812/2815 SCT015 BKN025
     FM281600 VRB06KT P6SM SCT040 BKN060
     FM281900 09007KT P6SM VCSH SCT060 BKN080
      TEMPO 2821/2824 VRB20G30KT -TSRA BKN050CB=

USA.gov is the U.S. government's official web portal to all federal, state and local government web resources and services.